Latest Weather Observations for Katanning RS

IDW60801

Issued at 6:05 pm WST Thursday 27 November 2014 (issued every 30 minutes, with the page automatically refreshed every 10 minutes)

About weather observations | Map of weather stations | Latest weather observations for WA | Other Formats
Station Details ID: 010916 Name: KATANNING Lat: -33.69 Lon: 117.61 Height: 320.0 m
Data from the previous 72 hours. | See also: Recent months at Katanning RS
Date/Time
WST
Temp
°C
App
Temp
°C
Dew
Point
Rel
Hum
%
Delta-T
°C
Wind Press
QNH
hPa
Press
MSL
hPa
Rain
since 9 am
mm
Dir
 
Spd
km/h
Gust
km/h
Spd
kts
Gust
kts
27/06:00pm 20.9 18.9 13.8 64 4.2 SW 17 24 9 13 1013.6 1012.7 0.2
27/05:30pm 22.4 19.4 11.8 51 6.0 S 19 26 10 14 1012.0 1011.2 0.0
27/05:00pm 23.4 19.7 11.5 47 6.8 SSW 22 32 12 17 1011.5 1010.6 0.0
27/04:30pm 25.1 21.8 11.6 42 7.8 SSW 20 32 11 17 1011.1 1010.2 0.0
27/04:00pm 25.3 21.8 12.2 44 7.6 SSW 22 32 12 17 1011.0 1010.1 0.0
27/03:30pm 26.5 23.1 11.4 39 8.7 SSW 20 32 11 17 1011.2 1010.3 0.0
27/03:00pm 25.9 22.3 10.5 38 8.7 SW 20 33 11 18 1011.2 1010.3 0.0
27/02:30pm 27.1 24.0 9.0 32 10.1 SSW 15 24 8 13 1011.2 1010.3 0.0
27/02:00pm 29.7 27.0 10.3 30 11.2 SW 15 26 8 14 1011.4 1010.5 0.0
27/01:30pm 27.2 24.4 10.0 34 9.7 W 15 20 8 11 1012.0 1011.2 0.0
27/01:00pm 27.4 25.9 9.3 32 10.1 S 7 17 4 9 1012.1 1011.3 0.0
27/12:30pm 26.8 24.5 10.5 36 9.3 SW 13 20 7 11 1012.2 1011.4 0.0
27/12:00pm 27.9 26.1 11.0 35 9.8 WSW 11 24 6 13 1012.6 1011.7 0.0
27/11:30am 26.4 23.4 10.5 37 9.0 SW 17 22 9 12 1012.8 1011.9 0.0
27/11:00am 26.4 24.0 11.3 39 8.7 WNW 15 24 8 13 1013.3 1012.4 0.0
27/10:30am 26.3 23.0 10.9 38 8.8 WNW 19 30 10 16 1013.4 1012.5 0.0
27/10:00am 26.9 23.4 10.2 35 9.5 NW 19 30 10 16 1013.4 1012.5 0.0
27/09:30am 26.9 25.3 11.4 38 9.0 N 11 26 6 14 1013.6 1012.7 0.0
27/09:00am 25.9 22.8 11.6 40 8.3 NNE 19 26 10 14 1013.8 1012.9 0.2
27/08:30am 24.6 22.6 11.5 44 7.5 N 13 20 7 11 1014.0 1013.1 0.2
27/08:00am 22.7 21.0 12.3 52 6.0 NNE 13 19 7 10 1013.9 1013.0 0.2
27/07:30am 22.6 22.6 13.7 57 5.2 N 6 13 3 7 1013.8 1012.9 0.2
27/07:00am 19.6 18.9 14.4 72 3.1 W 11 15 6 8 1013.7 1012.8 0.2
27/06:30am 19.1 19.6 13.9 72 3.0 NW 4 6 2 3 1013.2 1012.3 0.2
27/06:00am 17.9 17.9 13.6 76 2.5 NW 6 11 3 6 1013.0 1012.1 0.2
27/05:42am 18.1 13.7 13.0 72 2.9 ENE 28 33 15 18 1012.0 1011.2 0.2
27/05:30am 17.9 17.4 12.6 71 3.0 WSW 7 13 4 7 1013.2 1012.3 0.0
27/05:00am 17.5 15.8 12.6 73 2.8 SW 13 19 7 10 1012.5 1011.6 0.0
27/04:30am 17.9 17.9 12.4 70 3.1 SSE 4 9 2 5 1012.1 1011.3 0.0
27/04:00am 18.0 18.6 11.8 67 3.5 CALM 0 0 0 0 1012.6 1011.7 0.0
27/03:30am 18.9 17.9 12.2 65 3.8 ENE 9 13 5 7 1012.1 1011.3 0.0
27/03:00am 19.2 17.4 12.0 63 4.1 ENE 13 17 7 9 1011.6 1010.7 0.0
27/02:30am 19.3 17.6 12.3 64 4.0 E 13 20 7 11 1011.0 1010.1 0.0
27/02:00am 18.5 16.9 12.9 70 3.2 E 13 17 7 9 1011.3 1010.4 0.0
27/01:30am 18.4 16.1 13.1 71 3.0 E 17 26 9 14 1011.5 1010.6 0.0
27/01:00am 18.2 17.5 13.3 73 2.8 SE 9 15 5 8 1012.8 1011.9 0.0
27/12:30am 19.1 18.5 12.4 65 3.8 SE 7 11 4 6 1013.5 1012.6 0.0
27/12:00am 18.7 18.9 11.8 64 3.9 S 2 6 1 3 1014.2 1013.3 0.0
 
Date/Time
WST
Temp
°C
App
Temp
°C
Dew
Point
Rel
Hum
%
Delta-T
°C
Wind Press
QNH
hPa
Press
MSL
hPa
Rain
since 9 am
mm
Dir
 
Spd
km/h
Gust
km/h
Spd
kts
Gust
kts
26/11:30pm 19.4 18.7 11.9 62 4.2 ESE 7 9 4 5 1014.5 1013.7 0.0
26/11:00pm 19.6 19.8 11.9 61 4.3 S 2 7 1 4 1014.6 1013.8 0.0
26/10:30pm 20.1 19.0 11.8 59 4.7 SE 9 15 5 8 1014.1 1013.2 0.0
26/10:00pm 20.8 18.8 11.4 55 5.3 ESE 13 24 7 13 1014.1 1013.2 0.0
26/09:30pm 21.4 20.1 11.4 53 5.6 E 9 15 5 8 1015.0 1014.2 0.0
26/09:00pm 21.8 19.0 11.2 51 6.0 E 17 22 9 12 1014.9 1014.1 0.0
26/08:30pm 22.3 19.8 11.1 49 6.3 E 15 24 8 13 1014.4 1013.6 0.0
26/08:00pm 22.6 20.5 11.0 48 6.5 E 13 22 7 12 1014.2 1013.3 0.0
26/07:30pm 23.5 19.9 10.6 44 7.2 E 20 28 11 15 1013.8 1012.9 0.0
26/07:00pm 24.3 19.4 9.8 40 8.1 E 26 39 14 21 1012.7 1011.8 0.0
26/06:30pm 25.4 19.9 9.3 36 8.9 ESE 28 43 15 23 1012.4 1011.5 0.0
26/06:00pm 26.6 21.2 9.5 34 9.6 ESE 28 39 15 21 1011.8 1011.0 0.0
26/05:30pm 27.3 21.8 9.2 32 10.1 ESE 28 44 15 24 1011.6 1010.7 0.0
26/05:26pm 27.8 22.3 9.1 31 10.4 ESE 28 48 15 26 1011.5 1010.6 0.0
26/05:00pm 28.9 22.7 8.0 27 11.5 ESE 30 44 16 24 1011.3 1010.4 0.0
26/04:57pm 29.3 23.5 7.8 26 11.8 ESE 28 44 15 24 1011.3 1010.4 0.0
26/04:30pm 32.0 28.2 3.9 17 14.7 E 13 22 7 12 1011.1 1010.2 0.0
26/04:00pm 32.0 27.3 3.1 16 15.0 E 17 26 9 14 1011.3 1010.4 0.0
26/03:30pm 32.4 27.3 4.2 17 14.9 ENE 20 30 11 16 1011.8 1011.0 0.0
26/03:00pm 32.4 27.5 4.2 17 14.9 E 19 30 10 16 1012.2 1011.4 0.0
26/02:30pm 32.7 29.8 4.5 17 15.0 NNE 9 22 5 12 1012.8 1011.9 0.0
26/02:00pm 32.0 27.6 4.7 18 14.5 NNE 17 22 9 12 1013.4 1012.5 0.0
26/01:30pm 30.9 26.1 4.6 19 13.9 NE 19 28 10 15 1013.7 1012.8 0.0
26/01:00pm 30.1 26.4 4.7 20 13.3 NE 13 19 7 10 1014.2 1013.3 0.0
26/12:30pm 30.2 26.0 5.5 21 13.2 E 17 26 9 14 1014.7 1013.9 0.0
26/12:00pm 30.1 25.3 5.4 21 13.1 NNE 20 35 11 19 1015.1 1014.3 0.0
26/11:30am 29.3 24.2 6.0 23 12.5 ENE 22 33 12 18 1015.7 1014.8 0.0
26/11:00am 27.8 23.1 6.0 25 11.5 ENE 20 32 11 17 1016.5 1015.6 0.0
26/10:30am 27.4 22.0 6.2 26 11.3 ENE 24 35 13 19 1016.8 1015.9 0.0
26/10:00am 25.9 20.4 6.0 28 10.4 ENE 24 32 13 17 1017.2 1016.4 0.0
26/09:30am 25.1 19.2 5.8 29 10.0 ENE 26 39 14 21 1017.3 1016.5 0.0
26/09:00am 22.5 16.9 7.1 37 8.1 E 26 37 14 20 1017.6 1016.8 0.0
26/08:30am 20.6 15.9 7.6 43 6.8 E 22 32 12 17 1018.2 1017.4 0.0
26/08:00am 18.6 13.9 7.7 49 5.6 E 22 30 12 16 1018.7 1017.9 0.0
26/07:30am 18.3 13.0 8.3 52 5.2 E 26 35 14 19 1018.6 1017.8 0.0
26/07:00am 16.4 11.9 8.4 59 4.1 E 22 32 12 17 1019.0 1018.1 0.0
26/06:30am 15.5 11.4 8.7 64 3.5 E 20 30 11 16 1019.0 1018.1 0.0
26/06:00am 14.1 10.2 8.7 70 2.8 E 19 28 10 15 1018.7 1017.9 0.0
26/05:30am 12.9 9.7 8.6 75 2.2 E 15 20 8 11 1018.8 1018.0 0.0
26/05:00am 12.8 9.3 8.7 76 2.1 E 17 24 9 13 1018.7 1017.9 0.0
26/04:30am 13.0 10.0 9.3 78 1.9 E 15 22 8 12 1018.5 1017.7 0.0
26/04:00am 13.3 9.6 9.5 78 2.0 E 19 32 10 17 1018.4 1017.6 0.0
26/03:30am 13.3 10.0 9.7 79 1.9 E 17 24 9 13 1018.4 1017.6 0.0
26/03:00am 13.2 10.3 9.8 80 1.8 ESE 15 22 8 12 1018.4 1017.6 0.0
26/02:30am 13.6 8.7 10.0 79 1.9 E 26 39 14 21 1018.6 1017.8 0.0
26/02:00am 13.5 10.3 10.1 80 1.8 E 17 28 9 15 1018.7 1017.9 0.0
26/01:30am 13.5 9.7 9.9 79 1.9 E 20 30 11 16 1019.1 1018.2 0.0
26/01:00am 13.6 10.0 10.0 79 1.9 E 19 28 10 15 1019.3 1018.4 0.0
26/12:30am 13.4 9.6 9.8 79 1.9 E 20 28 11 15 1019.5 1018.6 0.0
26/12:00am 13.5 9.7 9.9 79 1.9 E 20 32 11 17 1019.9 1019.1 0.0
 
Date/Time
WST
Temp
°C
App
Temp
°C
Dew
Point
Rel
Hum
%
Delta-T
°C
Wind Press
QNH
hPa
Press
MSL
hPa
Rain
since 9 am
mm
Dir
 
Spd
km/h
Gust
km/h
Spd
kts
Gust
kts
25/11:30pm 13.3 10.1 9.9 80 1.8 E 17 26 9 14 1020.2 1019.4 0.0
25/11:00pm 13.3 9.5 9.7 79 1.9 ESE 20 30 11 16 1020.3 1019.5 0.0
25/10:30pm 13.6 9.7 9.6 77 2.1 ESE 20 30 11 16 1020.5 1019.7 0.0
25/10:00pm 14.0 11.0 9.4 74 2.4 ESE 15 26 8 14 1020.6 1019.8 0.0
25/09:30pm 14.8 10.1 9.4 70 2.8 ESE 24 37 13 20 1020.6 1019.8 0.0
25/09:00pm 15.6 11.9 9.5 67 3.2 ESE 19 28 10 15 1020.3 1019.5 0.0
25/08:30pm 16.6 11.1 9.3 62 3.9 ESE 28 41 15 22 1019.9 1019.1 0.0
25/08:00pm 17.5 13.1 8.9 57 4.5 ESE 22 35 12 19 1019.8 1018.9 0.0
25/07:30pm 18.6 13.3 8.6 52 5.3 ESE 26 33 14 18 1019.6 1018.7 0.0
25/07:00pm 20.2 15.2 7.9 45 6.4 ESE 24 35 13 19 1019.4 1018.5 0.0
25/06:30pm 21.4 15.1 7.6 41 7.3 ESE 30 41 16 22 1019.2 1018.3 0.0
25/06:00pm 23.1 17.1 7.2 36 8.4 SE 28 43 15 23 1019.0 1018.1 0.0
25/05:30pm 24.5 17.6 6.3 31 9.5 SE 32 43 17 23 1018.4 1017.6 0.0
25/05:25pm 25.0 17.9 5.7 29 10.0 ESE 32 43 17 23 1018.3 1017.5 0.0
25/05:00pm 27.3 23.4 0.9 18 12.7 ESE 11 20 6 11 1018.1 1017.3 0.0
25/04:30pm 27.3 22.9 0.1 17 13.0 E 13 22 7 12 1018.1 1017.3 0.0
25/04:00pm 27.3 22.6 0.9 18 12.7 ENE 15 26 8 14 1018.3 1017.5 0.0
25/03:30pm 28.0 25.1 1.5 18 13.0 SE 6 20 3 11 1018.5 1017.7 0.0
25/03:00pm 27.4 23.5 1.0 18 12.8 E 11 28 6 15 1018.8 1018.0 0.0
25/02:30pm 26.8 22.7 2.0 20 12.2 ENE 13 28 7 15 1019.2 1018.3 0.0
25/02:00pm 26.9 22.8 2.1 20 12.2 E 13 26 7 14 1019.6 1018.7 0.0
25/01:30pm 27.2 23.1 2.3 20 12.3 E 13 30 7 16 1019.8 1018.9 0.0
25/01:00pm 25.4 21.7 2.2 22 11.3 ESE 11 20 6 11 1020.1 1019.3 0.0
25/12:30pm 25.0 21.0 3.0 24 10.9 ENE 13 22 7 12 1020.7 1019.9 0.0
25/12:00pm 24.8 20.9 3.5 25 10.6 E 13 19 7 10 1021.0 1020.2 0.0
25/11:30am 23.8 19.5 3.2 26 10.1 E 15 22 8 12 1021.4 1020.6 0.0
25/11:00am 23.5 19.8 4.5 29 9.5 E 13 24 7 13 1021.8 1021.0 0.0
25/10:30am 22.6 17.5 4.2 30 9.1 E 20 28 11 15 1022.3 1021.4 0.0
25/10:00am 21.3 16.5 4.4 33 8.3 ENE 19 26 10 14 1022.6 1021.8 0.0
25/09:30am 19.6 15.2 4.5 37 7.4 E 17 24 9 13 1022.9 1022.1 0.0
25/09:00am 19.1 14.4 5.2 40 6.8 E 19 28 10 15 1023.1 1022.3 0.0
25/08:30am 17.9 12.8 6.1 46 5.9 ENE 22 30 12 16 1023.4 1022.6 0.0
25/08:00am 16.6 11.1 5.9 49 5.3 ENE 24 33 13 18 1023.4 1022.6 0.0
25/07:30am 15.0 10.0 6.6 57 4.2 E 22 32 12 17 1023.4 1022.6 0.0
25/07:00am 13.5 9.5 6.8 64 3.3 E 17 24 9 13 1023.4 1022.6 0.0
25/06:30am 12.0 8.8 6.7 70 2.6 E 13 20 7 11 1023.3 1022.5 0.0
25/06:00am 10.3 7.8 6.5 77 1.8 ESE 9 15 5 8 1023.1 1022.3 0.0
25/05:30am 9.5 7.3 6.4 81 1.5 ESE 7 11 4 6 1023.0 1022.2 0.0
25/05:00am 8.8 6.2 5.9 82 1.3 ESE 9 11 5 6 1022.8 1022.0 0.0
25/04:30am 8.8 6.2 5.9 82 1.3 ESE 9 15 5 8 1022.8 1022.0 0.0
25/04:00am 9.2 6.6 5.9 80 1.5 ESE 9 11 5 6 1022.7 1021.9 0.0
25/03:30am 9.4 6.8 5.9 79 1.6 ESE 9 13 5 7 1022.7 1021.9 0.0
25/03:00am 9.7 7.1 5.9 77 1.8 E 9 15 5 8 1022.6 1021.8 0.0
25/02:30am 10.0 7.4 6.0 76 1.9 ESE 9 13 5 7 1022.7 1021.9 0.0
25/02:00am 10.2 7.6 6.0 75 2.0 ESE 9 15 5 8 1022.5 1021.6 0.0
25/01:30am 10.6 8.0 6.0 73 2.2 ESE 9 19 5 10 1022.7 1021.9 0.0
25/01:00am 11.0 6.9 6.2 72 2.3 E 17 22 9 12 1022.8 1022.0 0.0
25/12:30am 11.3 6.8 6.0 70 2.5 E 19 24 10 13 1022.8 1022.0 0.0
25/12:00am 11.3 7.8 5.6 68 2.7 E 13 19 7 10 1023.1 1022.3 0.0
 
Date/Time
WST
Temp
°C
App
Temp
°C
Dew
Point
Rel
Hum
%
Delta-T
°C
Wind Press
QNH
hPa
Press
MSL
hPa
Rain
since 9 am
mm
Dir
 
Spd
km/h
Gust
km/h
Spd
kts
Gust
kts
24/11:30pm 11.6 8.2 5.7 67 2.8 ESE 13 22 7 12 1023.5 1022.7 0.0
24/11:00pm 11.7 7.5 5.6 66 2.9 E 17 22 9 12 1023.5 1022.7 0.0
24/10:30pm 12.0 8.2 5.6 65 3.0 ESE 15 20 8 11 1023.8 1023.0 0.0
24/10:00pm 12.4 8.2 5.8 64 3.1 ESE 17 30 9 16 1023.7 1022.9 0.0
24/09:30pm 12.8 8.0 5.7 62 3.4 SE 20 30 11 16 1023.7 1022.9 0.0
24/09:00pm 13.6 8.8 5.7 59 3.8 ESE 20 33 11 18 1023.5 1022.7 0.0
24/08:30pm 14.6 9.1 5.7 55 4.3 ESE 24 39 13 21 1023.1 1022.3 0.0
24/08:00pm 15.8 11.0 5.7 51 4.9 ESE 20 37 11 20 1022.7 1021.9 0.0
24/07:30pm 17.0 11.4 5.3 46 5.7 ESE 24 35 13 19 1022.1 1021.3 0.0
24/07:00pm 18.7 13.1 3.7 37 7.2 ESE 22 30 12 16 1021.7 1020.9 0.0
24/06:30pm 20.9 16.3 1.7 28 9.0 ESE 15 22 8 12 1021.0 1020.2 0.0

Other Formats:

Comma delimited format used in spreadsheet applications
http://www.bom.gov.au/fwo/IDW60801/IDW60801.94641.axf

JavaScript Object Notation format (JSON) in row-major order
http://www.bom.gov.au/fwo/IDW60801/IDW60801.94641.json